Udo Maru — JM6522 — position and weather

sailwx.info

Track history (hours):
 
Tides and Currents Weather Stations Pressure Air Temp Water Temp Dewpoint Dewpoint Depression Visibility Wind Speed Wind Dir Waves Ship Positions

Udo Maru

Last reported at 2016-Sep-19 06:33 UTC. Time now 2016-Sep-24 20:54 UTC.
Position N 34°37' E 134°56'.

Length 87 m; draft 4.9 m.

Type: Cargo ship. MMSI: 431600499.

Date/timePositionNaut miles runAvg speedWind from/ knotsBaromVisibWave heightAir tempDewpointWater temp
2016-Sep-19 06:33N 34°37' E 134°56'24 8.0
2016-Sep-19 03:33N 34°14' E 135°07'1 0.6
2016-Sep-19 02:33N 34°15' E 135°07'0 0.0
2016-Sep-19 00:33N 34°15' E 135°07'0 0.0
2016-Sep-18 19:33N 34°15' E 135°07'0 0.0
2016-Sep-18 15:33N 34°15' E 135°07'0 0.0
2016-Sep-18 14:33N 34°15' E 135°07'0 0.0
2016-Sep-18 10:29N 34°15' E 135°07'0 0.0
2016-Sep-18 09:33N 34°15' E 135°07'0 0.0
2016-Sep-18 02:33N 34°15' E 135°07'0 0.0
2016-Sep-18 01:33N 34°15' E 135°07'0 0.0
2016-Sep-18 00:33N 34°15' E 135°07'0 0.0
2016-Sep-17 22:33N 34°15' E 135°07'0 0.0
2016-Sep-17 21:27N 34°15' E 135°07'0 0.0
2016-Sep-17 20:33N 34°15' E 135°07'0 0.0
2016-Sep-17 19:16N 34°15' E 135°07'0 0.0
2016-Sep-17 13:33N 34°15' E 135°07'0 0.0
2016-Sep-17 12:33N 34°15' E 135°07'0 0.0
2016-Sep-17 10:33N 34°15' E 135°07'0 0.0
2016-Sep-17 09:33N 34°15' E 135°07'0 0.0
2016-Sep-17 08:33N 34°15' E 135°07'0 0.0
2016-Sep-17 07:34N 34°15' E 135°07'0 0.0
2016-Sep-17 05:33N 34°15' E 135°07'0 0.0
2016-Sep-17 04:33N 34°15' E 135°07'229 8.1
2016-Sep-16 00:15N 34°50' E 139°42'2111.9
2016-Sep-15 22:30N 34°56' E 140°06'1111.7
2016-Sep-15 21:33N 35°02' E 140°17'3210.8
2016-Sep-15 18:33N 35°27' E 140°43'29 4.6
2016-Sep-15 12:21N 35°56' E 140°40'0 0.0
2016-Sep-15 11:25N 35°56' E 140°40'0 0.0
2016-Sep-15 04:31N 35°56' E 140°40'0 0.0
2016-Sep-15 03:32N 35°56' E 140°40'0 0.0
2016-Sep-15 01:33N 35°56' E 140°40'0 0.0
2016-Sep-14 22:15N 35°56' E 140°40'2 3.2
2016-Sep-14 21:33N 35°57' E 140°42'1 0.1
2016-Sep-14 16:22N 35°57' E 140°42'25 9.0
2016-Sep-14 13:33N 35°33' E 140°49'1111.0
2016-Sep-14 12:33N 35°24' E 140°41'2411.5
2016-Sep-14 10:27N 35°06' E 140°21'1212.9
2016-Sep-14 09:33N 34°59' E 140°10'1612.2
2016-Sep-14 08:12N 34°52' E 139°52'811.6
2016-Sep-14 07:33N 34°56' E 139°44'1211.1
2016-Sep-14 06:28N 35°09' E 139°45'3211.0
2016-Sep-14 03:31N 35°39' E 139°59'1 0.2
2016-Sep-13 22:24N 35°40' E 139°59'0 0.0
2016-Sep-13 20:24N 35°40' E 139°59'0 0.0
2016-Sep-13 18:30N 35°40' E 139°59'0 0.0
2016-Sep-13 17:24N 35°40' E 139°59'0 0.0
2016-Sep-13 16:30N 35°40' E 139°59'0 0.0
2016-Sep-13 11:06N 35°40' E 139°59'0 0.0
2016-Sep-13 09:30N 35°40' E 139°59'0 0.0
2016-Sep-13 07:30N 35°40' E 139°59'0 0.0
2016-Sep-13 06:24N 35°40' E 139°59'0 0.0
2016-Sep-13 04:18N 35°40' E 139°59'0 0.0
2016-Sep-13 02:12N 35°40' E 139°59'0 0.0
2016-Sep-12 23:18N 35°40' E 139°59'4 2.5
2016-Sep-12 21:32N 35°35' E 139°60'13 6.5
2016-Sep-12 19:33N 35°26' E 139°48'19 9.7
2016-Sep-12 17:33N 35°07' E 139°46'243 9.3
2016-Sep-11 15:32N 34°05' E 135°00'1412.0
2016-Sep-11 14:20N 34°19' E 134°59'911.1
2016-Sep-11 13:33N 34°27' E 135°01'10 9.6
2016-Sep-11 12:33N 34°37' E 134°59'  
Track history (hours):
 
Tides and Currents Weather Stations Pressure Air Temp Water Temp Dewpoint Dewpoint Depression Visibility Wind Speed Wind Dir Waves Ship Positions

Udo Maru

Last reported at 2016-Sep-19 06:33 UTC. Time now 2016-Sep-24 20:54 UTC.
Position N 34°37' E 134°56'.

Length 87 m; draft 4.9 m.

Type: Cargo ship. MMSI: 431600499.

Date/timePositionNaut miles runAvg speedWind from/ knotsBaromVisibWave heightAir tempDewpointWater temp
2016-Sep-19 06:33N 34°37' E 134°56'24 8.0
2016-Sep-19 03:33N 34°14' E 135°07'1 0.6
2016-Sep-19 02:33N 34°15' E 135°07'0 0.0
2016-Sep-19 00:33N 34°15' E 135°07'0 0.0
2016-Sep-18 19:33N 34°15' E 135°07'0 0.0
2016-Sep-18 15:33N 34°15' E 135°07'0 0.0
2016-Sep-18 14:33N 34°15' E 135°07'0 0.0
2016-Sep-18 10:29N 34°15' E 135°07'0 0.0
2016-Sep-18 09:33N 34°15' E 135°07'0 0.0
2016-Sep-18 02:33N 34°15' E 135°07'0 0.0
2016-Sep-18 01:33N 34°15' E 135°07'0 0.0
2016-Sep-18 00:33N 34°15' E 135°07'0 0.0
2016-Sep-17 22:33N 34°15' E 135°07'0 0.0
2016-Sep-17 21:27N 34°15' E 135°07'0 0.0
2016-Sep-17 20:33N 34°15' E 135°07'0 0.0
2016-Sep-17 19:16N 34°15' E 135°07'0 0.0
2016-Sep-17 13:33N 34°15' E 135°07'0 0.0
2016-Sep-17 12:33N 34°15' E 135°07'0 0.0
2016-Sep-17 10:33N 34°15' E 135°07'0 0.0
2016-Sep-17 09:33N 34°15' E 135°07'0 0.0
2016-Sep-17 08:33N 34°15' E 135°07'0 0.0
2016-Sep-17 07:34N 34°15' E 135°07'0 0.0
2016-Sep-17 05:33N 34°15' E 135°07'0 0.0
2016-Sep-17 04:33N 34°15' E 135°07'229 8.1
2016-Sep-16 00:15N 34°50' E 139°42'2111.9
2016-Sep-15 22:30N 34°56' E 140°06'1111.7
2016-Sep-15 21:33N 35°02' E 140°17'3210.8
2016-Sep-15 18:33N 35°27' E 140°43'29 4.6
2016-Sep-15 12:21N 35°56' E 140°40'0 0.0
2016-Sep-15 11:25N 35°56' E 140°40'0 0.0
2016-Sep-15 04:31N 35°56' E 140°40'0 0.0
2016-Sep-15 03:32N 35°56' E 140°40'0 0.0
2016-Sep-15 01:33N 35°56' E 140°40'0 0.0
2016-Sep-14 22:15N 35°56' E 140°40'2 3.2
2016-Sep-14 21:33N 35°57' E 140°42'1 0.1
2016-Sep-14 16:22N 35°57' E 140°42'25 9.0
2016-Sep-14 13:33N 35°33' E 140°49'1111.0
2016-Sep-14 12:33N 35°24' E 140°41'2411.5
2016-Sep-14 10:27N 35°06' E 140°21'1212.9
2016-Sep-14 09:33N 34°59' E 140°10'1612.2
2016-Sep-14 08:12N 34°52' E 139°52'811.6
2016-Sep-14 07:33N 34°56' E 139°44'1211.1
2016-Sep-14 06:28N 35°09' E 139°45'3211.0
2016-Sep-14 03:31N 35°39' E 139°59'1 0.2
2016-Sep-13 22:24N 35°40' E 139°59'0 0.0
2016-Sep-13 20:24N 35°40' E 139°59'0 0.0
2016-Sep-13 18:30N 35°40' E 139°59'0 0.0
2016-Sep-13 17:24N 35°40' E 139°59'0 0.0
2016-Sep-13 16:30N 35°40' E 139°59'0 0.0
2016-Sep-13 11:06N 35°40' E 139°59'0 0.0
2016-Sep-13 09:30N 35°40' E 139°59'0 0.0
2016-Sep-13 07:30N 35°40' E 139°59'0 0.0
2016-Sep-13 06:24N 35°40' E 139°59'0 0.0
2016-Sep-13 04:18N 35°40' E 139°59'0 0.0
2016-Sep-13 02:12N 35°40' E 139°59'0 0.0
2016-Sep-12 23:18N 35°40' E 139°59'4 2.5
2016-Sep-12 21:32N 35°35' E 139°60'13 6.5
2016-Sep-12 19:33N 35°26' E 139°48'19 9.7
2016-Sep-12 17:33N 35°07' E 139°46'243 9.3
2016-Sep-11 15:32N 34°05' E 135°00'1412.0
2016-Sep-11 14:20N 34°19' E 134°59'911.1
2016-Sep-11 13:33N 34°27' E 135°01'10 9.6
2016-Sep-11 12:33N 34°37' E 134°59'  

Dump ship's entire track history